sensor_id;sensor_type;location;lat;lon;timestamp;P1;durP1;ratioP1;P2;durP2;ratioP2
2019;SDS011;1014;51.960;8.542;2023-09-19T00:02:07;29.27;;;27.67;;
2019;SDS011;1014;51.960;8.542;2023-09-19T00:04:36;30.70;;;28.60;;
2019;SDS011;1014;51.960;8.542;2023-09-19T00:07:04;30.60;;;28.87;;
2019;SDS011;1014;51.960;8.542;2023-09-19T00:09:31;32.00;;;29.80;;
2019;SDS011;1014;51.960;8.542;2023-09-19T00:12:02;31.37;;;29.57;;
2019;SDS011;1014;51.960;8.542;2023-09-19T00:14:30;32.00;;;30.00;;
2019;SDS011;1014;51.960;8.542;2023-09-19T00:16:59;30.43;;;28.60;;
2019;SDS011;1014;51.960;8.542;2023-09-19T00:19:30;30.83;;;28.80;;
2019;SDS011;1014;51.960;8.542;2023-09-19T00:22:00;30.43;;;28.20;;
2019;SDS011;1014;51.960;8.542;2023-09-19T00:24:27;30.43;;;28.63;;
2019;SDS011;1014;51.960;8.542;2023-09-19T00:26:54;28.67;;;26.70;;
2019;SDS011;1014;51.960;8.542;2023-09-19T00:29:24;28.73;;;26.83;;
2019;SDS011;1014;51.960;8.542;2023-09-19T00:31:54;27.70;;;25.90;;
2019;SDS011;1014;51.960;8.542;2023-09-19T00:34:21;29.03;;;27.10;;
2019;SDS011;1014;51.960;8.542;2023-09-19T00:36:48;28.03;;;26.33;;
2019;SDS011;1014;51.960;8.542;2023-09-19T00:39:17;27.67;;;26.00;;
2019;SDS011;1014;51.960;8.542;2023-09-19T00:41:45;27.33;;;25.33;;
2019;SDS011;1014;51.960;8.542;2023-09-19T00:44:12;26.23;;;24.63;;
2019;SDS011;1014;51.960;8.542;2023-09-19T00:46:40;28.17;;;26.37;;
2019;SDS011;1014;51.960;8.542;2023-09-19T00:49:08;27.30;;;25.70;;
2019;SDS011;1014;51.960;8.542;2023-09-19T00:51:37;28.50;;;26.53;;
2019;SDS011;1014;51.960;8.542;2023-09-19T00:54:10;26.87;;;24.90;;
2019;SDS011;1014;51.960;8.542;2023-09-19T00:56:44;27.00;;;25.20;;
2019;SDS011;1014;51.960;8.542;2023-09-19T00:59:11;27.70;;;25.50;;
2019;SDS011;1014;51.960;8.542;2023-09-19T01:01:38;26.13;;;23.93;;
2019;SDS011;1014;51.960;8.542;2023-09-19T01:04:06;25.93;;;24.20;;
2019;SDS011;1014;51.960;8.542;2023-09-19T01:06:33;26.77;;;24.70;;
2019;SDS011;1014;51.960;8.542;2023-09-19T01:09:01;26.40;;;24.33;;
2019;SDS011;1014;51.960;8.542;2023-09-19T01:11:32;26.57;;;24.33;;
2019;SDS011;1014;51.960;8.542;2023-09-19T01:14:03;25.73;;;23.83;;
2019;SDS011;1014;51.960;8.542;2023-09-19T01:16:34;26.67;;;24.73;;
2019;SDS011;1014;51.960;8.542;2023-09-19T01:21:50;25.40;;;23.60;;
2019;SDS011;1014;51.960;8.542;2023-09-19T01:24:31;24.17;;;22.70;;
2019;SDS011;1014;51.960;8.542;2023-09-19T01:27:06;25.80;;;23.57;;
2019;SDS011;1014;51.960;8.542;2023-09-19T01:29:38;25.93;;;23.87;;
2019;SDS011;1014;51.960;8.542;2023-09-19T01:32:06;26.30;;;24.30;;
2019;SDS011;1014;51.960;8.542;2023-09-19T01:34:44;25.60;;;24.00;;
2019;SDS011;1014;51.960;8.542;2023-09-19T01:37:13;25.50;;;23.53;;
2019;SDS011;1014;51.960;8.542;2023-09-19T01:39:44;26.07;;;24.20;;
2019;SDS011;1014;51.960;8.542;2023-09-19T01:42:15;27.33;;;24.60;;
2019;SDS011;1014;51.960;8.542;2023-09-19T01:44:49;26.10;;;24.10;;
2019;SDS011;1014;51.960;8.542;2023-09-19T01:47:23;23.97;;;22.47;;
2019;SDS011;1014;51.960;8.542;2023-09-19T01:49:55;27.13;;;25.27;;
2019;SDS011;1014;51.960;8.542;2023-09-19T01:52:23;25.00;;;23.10;;
2019;SDS011;1014;51.960;8.542;2023-09-19T01:54:55;26.17;;;24.30;;
2019;SDS011;1014;51.960;8.542;2023-09-19T01:57:26;24.90;;;23.40;;
2019;SDS011;1014;51.960;8.542;2023-09-19T01:59:57;25.03;;;23.33;;
2019;SDS011;1014;51.960;8.542;2023-09-19T02:02:27;25.83;;;23.93;;
2019;SDS011;1014;51.960;8.542;2023-09-19T02:04:54;26.50;;;24.20;;
2019;SDS011;1014;51.960;8.542;2023-09-19T02:07:22;25.13;;;22.70;;
2019;SDS011;1014;51.960;8.542;2023-09-19T02:09:49;25.73;;;23.73;;
2019;SDS011;1014;51.960;8.542;2023-09-19T02:12:16;25.57;;;23.80;;
2019;SDS011;1014;51.960;8.542;2023-09-19T02:14:43;26.23;;;24.13;;
2019;SDS011;1014;51.960;8.542;2023-09-19T02:17:10;23.27;;;21.60;;
2019;SDS011;1014;51.960;8.542;2023-09-19T02:19:39;23.23;;;21.73;;
2019;SDS011;1014;51.960;8.542;2023-09-19T02:22:06;23.87;;;21.80;;
2019;SDS011;1014;51.960;8.542;2023-09-19T02:24:35;25.30;;;23.03;;
2019;SDS011;1014;51.960;8.542;2023-09-19T02:27:03;23.17;;;21.27;;
2019;SDS011;1014;51.960;8.542;2023-09-19T02:29:30;22.27;;;20.57;;
2019;SDS011;1014;51.960;8.542;2023-09-19T02:31:57;22.17;;;20.20;;
2019;SDS011;1014;51.960;8.542;2023-09-19T02:34:24;21.10;;;19.53;;
2019;SDS011;1014;51.960;8.542;2023-09-19T02:36:53;21.83;;;20.20;;
2019;SDS011;1014;51.960;8.542;2023-09-19T02:39:21;20.80;;;19.10;;
2019;SDS011;1014;51.960;8.542;2023-09-19T02:41:48;21.20;;;19.70;;
2019;SDS011;1014;51.960;8.542;2023-09-19T02:44:15;21.57;;;19.83;;
2019;SDS011;1014;51.960;8.542;2023-09-19T02:46:45;21.00;;;19.37;;
2019;SDS011;1014;51.960;8.542;2023-09-19T02:49:13;20.73;;;18.97;;
2019;SDS011;1014;51.960;8.542;2023-09-19T02:51:40;20.83;;;19.20;;
2019;SDS011;1014;51.960;8.542;2023-09-19T02:54:09;21.27;;;19.67;;
2019;SDS011;1014;51.960;8.542;2023-09-19T02:56:36;21.77;;;20.03;;
2019;SDS011;1014;51.960;8.542;2023-09-19T02:59:03;22.43;;;20.33;;
2019;SDS011;1014;51.960;8.542;2023-09-19T03:01:30;22.17;;;20.27;;
2019;SDS011;1014;51.960;8.542;2023-09-19T03:03:58;21.90;;;20.10;;
2019;SDS011;1014;51.960;8.542;2023-09-19T03:06:25;21.93;;;20.13;;
2019;SDS011;1014;51.960;8.542;2023-09-19T03:08:54;22.37;;;20.20;;
2019;SDS011;1014;51.960;8.542;2023-09-19T03:11:23;21.33;;;19.73;;
2019;SDS011;1014;51.960;8.542;2023-09-19T03:13:50;21.87;;;20.30;;
2019;SDS011;1014;51.960;8.542;2023-09-19T03:16:17;23.07;;;21.20;;
2019;SDS011;1014;51.960;8.542;2023-09-19T03:18:46;21.90;;;20.03;;
2019;SDS011;1014;51.960;8.542;2023-09-19T03:21:14;21.13;;;19.70;;
2019;SDS011;1014;51.960;8.542;2023-09-19T03:23:41;22.13;;;19.90;;
2019;SDS011;1014;51.960;8.542;2023-09-19T03:26:10;21.23;;;19.80;;
2019;SDS011;1014;51.960;8.542;2023-09-19T03:28:38;20.37;;;19.00;;
2019;SDS011;1014;51.960;8.542;2023-09-19T03:31:06;21.60;;;19.50;;
2019;SDS011;1014;51.960;8.542;2023-09-19T03:33:33;21.77;;;20.07;;
2019;SDS011;1014;51.960;8.542;2023-09-19T03:36:00;21.40;;;19.73;;
2019;SDS011;1014;51.960;8.542;2023-09-19T03:38:30;20.13;;;18.60;;
2019;SDS011;1014;51.960;8.542;2023-09-19T03:40:57;21.57;;;19.30;;
2019;SDS011;1014;51.960;8.542;2023-09-19T03:43:24;23.23;;;21.17;;
2019;SDS011;1014;51.960;8.542;2023-09-19T03:45:53;20.63;;;18.60;;
2019;SDS011;1014;51.960;8.542;2023-09-19T03:48:20;20.07;;;18.33;;
2019;SDS011;1014;51.960;8.542;2023-09-19T03:50:47;20.00;;;18.63;;
2019;SDS011;1014;51.960;8.542;2023-09-19T03:53:15;20.13;;;18.80;;
2019;SDS011;1014;51.960;8.542;2023-09-19T03:55:44;20.17;;;18.57;;
2019;SDS011;1014;51.960;8.542;2023-09-19T03:58:11;20.77;;;18.83;;
2019;SDS011;1014;51.960;8.542;2023-09-19T04:00:38;20.30;;;18.67;;
2019;SDS011;1014;51.960;8.542;2023-09-19T04:03:06;25.03;;;22.53;;
2019;SDS011;1014;51.960;8.542;2023-09-19T04:05:35;20.33;;;19.00;;
2019;SDS011;1014;51.960;8.542;2023-09-19T04:08:03;19.47;;;18.30;;
2019;SDS011;1014;51.960;8.542;2023-09-19T04:10:30;20.73;;;19.00;;
2019;SDS011;1014;51.960;8.542;2023-09-19T04:12:57;21.23;;;19.80;;
2019;SDS011;1014;51.960;8.542;2023-09-19T04:15:24;21.53;;;19.63;;
2019;SDS011;1014;51.960;8.542;2023-09-19T04:17:52;22.20;;;20.10;;
2019;SDS011;1014;51.960;8.542;2023-09-19T04:20:20;21.07;;;19.10;;
2019;SDS011;1014;51.960;8.542;2023-09-19T04:22:49;23.70;;;20.40;;
2019;SDS011;1014;51.960;8.542;2023-09-19T04:25:16;20.57;;;19.07;;
2019;SDS011;1014;51.960;8.542;2023-09-19T04:27:44;21.37;;;19.10;;
2019;SDS011;1014;51.960;8.542;2023-09-19T04:30:11;20.97;;;19.40;;
2019;SDS011;1014;51.960;8.542;2023-09-19T04:32:39;20.03;;;18.30;;
2019;SDS011;1014;51.960;8.542;2023-09-19T04:35:07;20.23;;;18.73;;
2019;SDS011;1014;51.960;8.542;2023-09-19T04:37:37;20.30;;;18.57;;
2019;SDS011;1014;51.960;8.542;2023-09-19T04:40:06;21.40;;;19.67;;
2019;SDS011;1014;51.960;8.542;2023-09-19T04:42:37;21.73;;;19.80;;
2019;SDS011;1014;51.960;8.542;2023-09-19T04:45:05;21.17;;;19.30;;
2019;SDS011;1014;51.960;8.542;2023-09-19T04:47:32;21.20;;;19.60;;
2019;SDS011;1014;51.960;8.542;2023-09-19T04:49:59;20.83;;;18.60;;
2019;SDS011;1014;51.960;8.542;2023-09-19T04:52:26;21.03;;;19.33;;
2019;SDS011;1014;51.960;8.542;2023-09-19T04:54:54;21.37;;;19.60;;
2019;SDS011;1014;51.960;8.542;2023-09-19T04:57:22;20.50;;;18.77;;
2019;SDS011;1014;51.960;8.542;2023-09-19T04:59:50;22.30;;;19.97;;
2019;SDS011;1014;51.960;8.542;2023-09-19T05:02:17;24.57;;;20.90;;
2019;SDS011;1014;51.960;8.542;2023-09-19T05:04:44;24.20;;;18.80;;
2019;SDS011;1014;51.960;8.542;2023-09-19T05:07:11;21.33;;;19.23;;
2019;SDS011;1014;51.960;8.542;2023-09-19T05:09:38;21.03;;;19.33;;
2019;SDS011;1014;51.960;8.542;2023-09-19T05:12:08;20.30;;;18.67;;
2019;SDS011;1014;51.960;8.542;2023-09-19T05:14:35;21.13;;;19.07;;
2019;SDS011;1014;51.960;8.542;2023-09-19T05:17:03;20.47;;;18.67;;
2019;SDS011;1014;51.960;8.542;2023-09-19T05:19:30;20.77;;;18.73;;
2019;SDS011;1014;51.960;8.542;2023-09-19T05:21:57;20.97;;;19.33;;
2019;SDS011;1014;51.960;8.542;2023-09-19T05:24:24;20.33;;;18.83;;
2019;SDS011;1014;51.960;8.542;2023-09-19T05:26:51;20.83;;;18.90;;
2019;SDS011;1014;51.960;8.542;2023-09-19T05:29:21;21.97;;;20.07;;
2019;SDS011;1014;51.960;8.542;2023-09-19T05:31:48;20.43;;;18.70;;
2019;SDS011;1014;51.960;8.542;2023-09-19T05:34:16;22.33;;;20.17;;
2019;SDS011;1014;51.960;8.542;2023-09-19T05:36:43;20.57;;;18.87;;
2019;SDS011;1014;51.960;8.542;2023-09-19T05:39:10;21.17;;;19.13;;
2019;SDS011;1014;51.960;8.542;2023-09-19T05:41:37;20.63;;;18.63;;
2019;SDS011;1014;51.960;8.542;2023-09-19T05:44:05;20.13;;;18.63;;
2019;SDS011;1014;51.960;8.542;2023-09-19T05:46:33;20.50;;;19.07;;
2019;SDS011;1014;51.960;8.542;2023-09-19T05:49:00;20.50;;;19.20;;
2019;SDS011;1014;51.960;8.542;2023-09-19T05:51:28;21.60;;;19.50;;
2019;SDS011;1014;51.960;8.542;2023-09-19T05:53:55;21.33;;;19.30;;
2019;SDS011;1014;51.960;8.542;2023-09-19T05:56:22;20.80;;;19.33;;
2019;SDS011;1014;51.960;8.542;2023-09-19T05:58:50;24.13;;;20.00;;
2019;SDS011;1014;51.960;8.542;2023-09-19T06:01:18;21.53;;;19.57;;
2019;SDS011;1014;51.960;8.542;2023-09-19T06:03:46;21.53;;;19.63;;
2019;SDS011;1014;51.960;8.542;2023-09-19T06:06:13;20.73;;;19.37;;
2019;SDS011;1014;51.960;8.542;2023-09-19T06:08:40;20.93;;;19.23;;
2019;SDS011;1014;51.960;8.542;2023-09-19T06:11:09;21.77;;;19.73;;
2019;SDS011;1014;51.960;8.542;2023-09-19T06:13:36;21.30;;;19.50;;
2019;SDS011;1014;51.960;8.542;2023-09-19T06:16:05;20.63;;;19.03;;
2019;SDS011;1014;51.960;8.542;2023-09-19T06:18:32;20.60;;;18.50;;
2019;SDS011;1014;51.960;8.542;2023-09-19T06:21:01;20.03;;;18.60;;
2019;SDS011;1014;51.960;8.542;2023-09-19T06:23:32;20.60;;;18.93;;
2019;SDS011;1014;51.960;8.542;2023-09-19T06:26:00;21.13;;;19.17;;
2019;SDS011;1014;51.960;8.542;2023-09-19T06:28:28;20.97;;;19.00;;
2019;SDS011;1014;51.960;8.542;2023-09-19T06:30:55;20.20;;;18.83;;
2019;SDS011;1014;51.960;8.542;2023-09-19T06:33:23;21.50;;;19.47;;
2019;SDS011;1014;51.960;8.542;2023-09-19T06:35:50;20.70;;;18.70;;
2019;SDS011;1014;51.960;8.542;2023-09-19T06:38:25;19.87;;;18.20;;
2019;SDS011;1014;51.960;8.542;2023-09-19T06:40:53;20.03;;;18.73;;
2019;SDS011;1014;51.960;8.542;2023-09-19T06:43:21;20.20;;;18.63;;
2019;SDS011;1014;51.960;8.542;2023-09-19T06:45:48;21.53;;;19.93;;
2019;SDS011;1014;51.960;8.542;2023-09-19T06:48:16;20.87;;;18.93;;
2019;SDS011;1014;51.960;8.542;2023-09-19T06:50:44;22.90;;;19.30;;
2019;SDS011;1014;51.960;8.542;2023-09-19T06:53:13;21.73;;;19.70;;
2019;SDS011;1014;51.960;8.542;2023-09-19T06:55:41;20.20;;;18.70;;
2019;SDS011;1014;51.960;8.542;2023-09-19T06:58:09;20.70;;;19.00;;
2019;SDS011;1014;51.960;8.542;2023-09-19T07:00:36;20.20;;;18.70;;
2019;SDS011;1014;51.960;8.542;2023-09-19T07:03:04;22.27;;;20.53;;
2019;SDS011;1014;51.960;8.542;2023-09-19T07:05:35;21.00;;;19.20;;
2019;SDS011;1014;51.960;8.542;2023-09-19T07:08:04;20.93;;;19.17;;
2019;SDS011;1014;51.960;8.542;2023-09-19T07:10:31;20.80;;;19.23;;
2019;SDS011;1014;51.960;8.542;2023-09-19T07:13:01;22.10;;;19.90;;
2019;SDS011;1014;51.960;8.542;2023-09-19T07:15:28;19.33;;;18.10;;
2019;SDS011;1014;51.960;8.542;2023-09-19T07:17:56;21.37;;;19.70;;
2019;SDS011;1014;51.960;8.542;2023-09-19T07:20:23;20.50;;;18.53;;
2019;SDS011;1014;51.960;8.542;2023-09-19T07:22:52;19.73;;;18.10;;
2019;SDS011;1014;51.960;8.542;2023-09-19T07:25:20;20.93;;;19.13;;
2019;SDS011;1014;51.960;8.542;2023-09-19T07:27:47;23.90;;;20.50;;
2019;SDS011;1014;51.960;8.542;2023-09-19T07:30:17;20.50;;;18.90;;
2019;SDS011;1014;51.960;8.542;2023-09-19T07:32:44;21.60;;;19.87;;
2019;SDS011;1014;51.960;8.542;2023-09-19T07:35:11;19.97;;;18.43;;
2019;SDS011;1014;51.960;8.542;2023-09-19T07:37:40;20.40;;;19.13;;
2019;SDS011;1014;51.960;8.542;2023-09-19T07:40:07;20.47;;;19.23;;
2019;SDS011;1014;51.960;8.542;2023-09-19T07:42:34;22.30;;;20.37;;
2019;SDS011;1014;51.960;8.542;2023-09-19T07:45:06;21.80;;;20.10;;
2019;SDS011;1014;51.960;8.542;2023-09-19T07:47:35;21.20;;;19.60;;
2019;SDS011;1014;51.960;8.542;2023-09-19T07:50:02;20.70;;;19.33;;
2019;SDS011;1014;51.960;8.542;2023-09-19T07:52:29;21.00;;;19.70;;
2019;SDS011;1014;51.960;8.542;2023-09-19T07:54:58;21.13;;;19.13;;
2019;SDS011;1014;51.960;8.542;2023-09-19T07:57:26;20.60;;;19.20;;
2019;SDS011;1014;51.960;8.542;2023-09-19T07:59:54;21.00;;;19.23;;
2019;SDS011;1014;51.960;8.542;2023-09-19T08:02:22;21.67;;;19.70;;
2019;SDS011;1014;51.960;8.542;2023-09-19T08:04:50;21.50;;;20.00;;
2019;SDS011;1014;51.960;8.542;2023-09-19T08:07:18;21.17;;;19.60;;
2019;SDS011;1014;51.960;8.542;2023-09-19T08:09:45;21.13;;;19.50;;
2019;SDS011;1014;51.960;8.542;2023-09-19T08:12:13;19.97;;;18.73;;
2019;SDS011;1014;51.960;8.542;2023-09-19T08:14:41;21.60;;;19.70;;
2019;SDS011;1014;51.960;8.542;2023-09-19T08:17:09;21.47;;;19.40;;
2019;SDS011;1014;51.960;8.542;2023-09-19T08:19:37;20.63;;;19.07;;
2019;SDS011;1014;51.960;8.542;2023-09-19T08:22:08;19.90;;;18.63;;
2019;SDS011;1014;51.960;8.542;2023-09-19T08:24:36;19.90;;;18.40;;
2019;SDS011;1014;51.960;8.542;2023-09-19T08:27:04;19.83;;;18.73;;
2019;SDS011;1014;51.960;8.542;2023-09-19T08:29:34;22.70;;;20.60;;
2019;SDS011;1014;51.960;8.542;2023-09-19T08:32:01;20.67;;;19.10;;
2019;SDS011;1014;51.960;8.542;2023-09-19T08:34:28;21.40;;;19.23;;
2019;SDS011;1014;51.960;8.542;2023-09-19T08:36:59;19.53;;;18.27;;
2019;SDS011;1014;51.960;8.542;2023-09-19T08:39:27;21.17;;;19.07;;
2019;SDS011;1014;51.960;8.542;2023-09-19T08:41:59;21.27;;;19.20;;
2019;SDS011;1014;51.960;8.542;2023-09-19T08:44:26;21.87;;;19.63;;
2019;SDS011;1014;51.960;8.542;2023-09-19T08:46:55;20.70;;;18.70;;
2019;SDS011;1014;51.960;8.542;2023-09-19T08:49:27;21.87;;;19.67;;
2019;SDS011;1014;51.960;8.542;2023-09-19T08:52:01;19.50;;;18.00;;
2019;SDS011;1014;51.960;8.542;2023-09-19T08:54:35;20.63;;;18.93;;
2019;SDS011;1014;51.960;8.542;2023-09-19T08:57:06;21.30;;;19.63;;
2019;SDS011;1014;51.960;8.542;2023-09-19T08:59:33;21.03;;;19.53;;
2019;SDS011;1014;51.960;8.542;2023-09-19T09:02:03;21.17;;;19.17;;
2019;SDS011;1014;51.960;8.542;2023-09-19T09:04:30;20.03;;;18.47;;
2019;SDS011;1014;51.960;8.542;2023-09-19T09:06:58;21.33;;;19.67;;
2019;SDS011;1014;51.960;8.542;2023-09-19T09:09:25;22.10;;;20.23;;
2019;SDS011;1014;51.960;8.542;2023-09-19T09:11:54;21.30;;;19.30;;
2019;SDS011;1014;51.960;8.542;2023-09-19T09:14:22;23.17;;;21.37;;
2019;SDS011;1014;51.960;8.542;2023-09-19T09:16:49;22.83;;;20.67;;
2019;SDS011;1014;51.960;8.542;2023-09-19T09:19:16;20.90;;;19.50;;
2019;SDS011;1014;51.960;8.542;2023-09-19T09:21:49;22.27;;;20.20;;
2019;SDS011;1014;51.960;8.542;2023-09-19T09:24:26;22.10;;;20.60;;
2019;SDS011;1014;51.960;8.542;2023-09-19T09:26:55;22.93;;;20.70;;
2019;SDS011;1014;51.960;8.542;2023-09-19T09:29:38;21.93;;;20.20;;
2019;SDS011;1014;51.960;8.542;2023-09-19T09:32:16;22.87;;;21.00;;
2019;SDS011;1014;51.960;8.542;2023-09-19T09:34:44;22.13;;;20.20;;
2019;SDS011;1014;51.960;8.542;2023-09-19T09:37:13;22.83;;;21.03;;
2019;SDS011;1014;51.960;8.542;2023-09-19T09:39:42;23.03;;;21.10;;
2019;SDS011;1014;51.960;8.542;2023-09-19T09:42:21;22.47;;;20.67;;
2019;SDS011;1014;51.960;8.542;2023-09-19T09:45:05;21.70;;;20.13;;
2019;SDS011;1014;51.960;8.542;2023-09-19T09:47:42;23.57;;;21.57;;
2019;SDS011;1014;51.960;8.542;2023-09-19T09:50:28;23.20;;;21.00;;
2019;SDS011;1014;51.960;8.542;2023-09-19T09:53:05;22.53;;;20.80;;
2019;SDS011;1014;51.960;8.542;2023-09-19T09:55:56;22.83;;;21.00;;
2019;SDS011;1014;51.960;8.542;2023-09-19T09:58:25;22.30;;;20.80;;
2019;SDS011;1014;51.960;8.542;2023-09-19T10:00:55;21.97;;;20.37;;
2019;SDS011;1014;51.960;8.542;2023-09-19T10:03:30;24.20;;;22.10;;
2019;SDS011;1014;51.960;8.542;2023-09-19T10:05:59;22.50;;;20.90;;
2019;SDS011;1014;51.960;8.542;2023-09-19T10:08:34;23.93;;;21.93;;
2019;SDS011;1014;51.960;8.542;2023-09-19T10:11:01;23.87;;;21.90;;
2019;SDS011;1014;51.960;8.542;2023-09-19T10:13:43;22.80;;;21.13;;
2019;SDS011;1014;51.960;8.542;2023-09-19T10:16:12;22.90;;;21.10;;
2019;SDS011;1014;51.960;8.542;2023-09-19T10:18:40;22.80;;;21.10;;
2019;SDS011;1014;51.960;8.542;2023-09-19T10:21:09;23.20;;;21.10;;
2019;SDS011;1014;51.960;8.542;2023-09-19T10:23:36;23.10;;;21.17;;
2019;SDS011;1014;51.960;8.542;2023-09-19T10:26:05;22.10;;;20.70;;
2019;SDS011;1014;51.960;8.542;2023-09-19T10:28:34;23.47;;;21.40;;
2019;SDS011;1014;51.960;8.542;2023-09-19T10:31:04;22.77;;;21.17;;
2019;SDS011;1014;51.960;8.542;2023-09-19T10:33:35;23.93;;;22.00;;
2019;SDS011;1014;51.960;8.542;2023-09-19T10:36:03;22.63;;;20.97;;
2019;SDS011;1014;51.960;8.542;2023-09-19T10:38:31;22.97;;;21.30;;
2019;SDS011;1014;51.960;8.542;2023-09-19T10:41:00;22.90;;;21.00;;
2019;SDS011;1014;51.960;8.542;2023-09-19T10:43:29;23.70;;;21.80;;
2019;SDS011;1014;51.960;8.542;2023-09-19T10:45:57;23.07;;;21.33;;
2019;SDS011;1014;51.960;8.542;2023-09-19T10:48:30;23.43;;;21.73;;
2019;SDS011;1014;51.960;8.542;2023-09-19T10:50:58;22.43;;;20.93;;
2019;SDS011;1014;51.960;8.542;2023-09-19T10:53:29;24.27;;;22.63;;
2019;SDS011;1014;51.960;8.542;2023-09-19T10:55:59;24.80;;;22.60;;
2019;SDS011;1014;51.960;8.542;2023-09-19T10:58:35;23.50;;;21.90;;
2019;SDS011;1014;51.960;8.542;2023-09-19T11:01:04;23.37;;;21.67;;
2019;SDS011;1014;51.960;8.542;2023-09-19T11:03:34;25.63;;;23.60;;
2019;SDS011;1014;51.960;8.542;2023-09-19T11:06:09;22.50;;;20.90;;
2019;SDS011;1014;51.960;8.542;2023-09-19T11:08:58;23.80;;;21.30;;
2019;SDS011;1014;51.960;8.542;2023-09-19T11:11:47;25.37;;;23.07;;
2019;SDS011;1014;51.960;8.542;2023-09-19T11:14:29;25.03;;;22.90;;
2019;SDS011;1014;51.960;8.542;2023-09-19T11:30:57;23.73;;;21.80;;
2019;SDS011;1014;51.960;8.542;2023-09-19T11:33:25;23.30;;;21.17;;
2019;SDS011;1014;51.960;8.542;2023-09-19T11:36:02;21.37;;;20.07;;
2019;SDS011;1014;51.960;8.542;2023-09-19T11:46:53;22.67;;;20.43;;
2019;SDS011;1014;51.960;8.542;2023-09-19T11:49:25;23.47;;;21.40;;
2019;SDS011;1014;51.960;8.542;2023-09-19T11:51:56;23.50;;;21.70;;
2019;SDS011;1014;51.960;8.542;2023-09-19T11:54:27;22.40;;;20.60;;
2019;SDS011;1014;51.960;8.542;2023-09-19T11:56:56;23.97;;;21.90;;
2019;SDS011;1014;51.960;8.542;2023-09-19T11:59:24;23.37;;;21.53;;
2019;SDS011;1014;51.960;8.542;2023-09-19T12:01:55;22.57;;;20.83;;
2019;SDS011;1014;51.960;8.542;2023-09-19T12:04:33;23.10;;;21.30;;
2019;SDS011;1014;51.960;8.542;2023-09-19T12:07:02;23.30;;;21.70;;
2019;SDS011;1014;51.960;8.542;2023-09-19T12:09:30;22.40;;;20.80;;
2019;SDS011;1014;51.960;8.542;2023-09-19T12:11:57;22.73;;;21.23;;
2019;SDS011;1014;51.960;8.542;2023-09-19T12:14:25;23.10;;;21.50;;
2019;SDS011;1014;51.960;8.542;2023-09-19T12:16:54;22.50;;;20.80;;
2019;SDS011;1014;51.960;8.542;2023-09-19T12:19:22;24.63;;;22.40;;
2019;SDS011;1014;51.960;8.542;2023-09-19T12:21:59;23.10;;;20.83;;
2019;SDS011;1014;51.960;8.542;2023-09-19T12:24:29;22.13;;;20.83;;
2019;SDS011;1014;51.960;8.542;2023-09-19T12:27:00;22.30;;;20.73;;
2019;SDS011;1014;51.960;8.542;2023-09-19T12:29:29;23.73;;;21.73;;
2019;SDS011;1014;51.960;8.542;2023-09-19T12:31:58;23.83;;;22.03;;
2019;SDS011;1014;51.960;8.542;2023-09-19T12:34:29;23.30;;;21.67;;
2019;SDS011;1014;51.960;8.542;2023-09-19T12:37:03;24.40;;;22.53;;
2019;SDS011;1014;51.960;8.542;2023-09-19T12:39:36;22.83;;;21.40;;
2019;SDS011;1014;51.960;8.542;2023-09-19T12:42:03;23.83;;;22.23;;
2019;SDS011;1014;51.960;8.542;2023-09-19T12:44:33;23.80;;;21.90;;
2019;SDS011;1014;51.960;8.542;2023-09-19T12:47:09;24.20;;;22.43;;
2019;SDS011;1014;51.960;8.542;2023-09-19T12:49:36;23.57;;;21.87;;
2019;SDS011;1014;51.960;8.542;2023-09-19T12:52:23;23.87;;;21.67;;
2019;SDS011;1014;51.960;8.542;2023-09-19T12:54:51;24.03;;;22.00;;
2019;SDS011;1014;51.960;8.542;2023-09-19T12:57:23;23.97;;;22.13;;
2019;SDS011;1014;51.960;8.542;2023-09-19T12:59:51;22.50;;;21.00;;
2019;SDS011;1014;51.960;8.542;2023-09-19T13:02:20;22.87;;;21.27;;
2019;SDS011;1014;51.960;8.542;2023-09-19T13:04:51;23.83;;;21.60;;
2019;SDS011;1014;51.960;8.542;2023-09-19T13:10:02;23.80;;;21.80;;
2019;SDS011;1014;51.960;8.542;2023-09-19T13:12:36;22.70;;;21.20;;
2019;SDS011;1014;51.960;8.542;2023-09-19T13:15:07;23.93;;;21.53;;
2019;SDS011;1014;51.960;8.542;2023-09-19T13:17:46;22.47;;;21.17;;
2019;SDS011;1014;51.960;8.542;2023-09-19T13:20:20;23.10;;;21.33;;
2019;SDS011;1014;51.960;8.542;2023-09-19T13:22:52;21.83;;;20.43;;
2019;SDS011;1014;51.960;8.542;2023-09-19T13:25:23;21.60;;;20.27;;
2019;SDS011;1014;51.960;8.542;2023-09-19T13:27:53;23.47;;;21.67;;
2019;SDS011;1014;51.960;8.542;2023-09-19T13:30:21;22.90;;;21.30;;
2019;SDS011;1014;51.960;8.542;2023-09-19T13:32:51;23.53;;;21.63;;
2019;SDS011;1014;51.960;8.542;2023-09-19T13:35:19;23.37;;;21.57;;
2019;SDS011;1014;51.960;8.542;2023-09-19T13:37:46;23.37;;;21.77;;
2019;SDS011;1014;51.960;8.542;2023-09-19T13:40:16;23.40;;;21.80;;
2019;SDS011;1014;51.960;8.542;2023-09-19T13:42:43;22.80;;;21.17;;
2019;SDS011;1014;51.960;8.542;2023-09-19T13:45:10;22.00;;;20.40;;
2019;SDS011;1014;51.960;8.542;2023-09-19T13:47:40;28.20;;;22.10;;
2019;SDS011;1014;51.960;8.542;2023-09-19T13:50:09;23.20;;;21.43;;
2019;SDS011;1014;51.960;8.542;2023-09-19T13:52:36;22.70;;;21.20;;
2019;SDS011;1014;51.960;8.542;2023-09-19T13:55:04;23.13;;;21.50;;
2019;SDS011;1014;51.960;8.542;2023-09-19T13:57:32;23.20;;;21.60;;
2019;SDS011;1014;51.960;8.542;2023-09-19T13:59:59;23.43;;;21.87;;
2019;SDS011;1014;51.960;8.542;2023-09-19T14:02:26;23.23;;;21.70;;
2019;SDS011;1014;51.960;8.542;2023-09-19T14:04:53;23.37;;;21.83;;
2019;SDS011;1014;51.960;8.542;2023-09-19T14:07:22;22.33;;;20.83;;
2019;SDS011;1014;51.960;8.542;2023-09-19T14:09:49;23.90;;;22.20;;
2019;SDS011;1014;51.960;8.542;2023-09-19T14:12:17;22.90;;;21.40;;
2019;SDS011;1014;51.960;8.542;2023-09-19T14:14:45;23.77;;;21.77;;
2019;SDS011;1014;51.960;8.542;2023-09-19T14:17:12;22.77;;;21.07;;
2019;SDS011;1014;51.960;8.542;2023-09-19T14:19:40;22.20;;;20.90;;
2019;SDS011;1014;51.960;8.542;2023-09-19T14:22:08;23.17;;;21.57;;
2019;SDS011;1014;51.960;8.542;2023-09-19T14:24:36;22.83;;;21.13;;
2019;SDS011;1014;51.960;8.542;2023-09-19T14:27:04;21.70;;;20.40;;
2019;SDS011;1014;51.960;8.542;2023-09-19T14:29:34;23.60;;;22.00;;
2019;SDS011;1014;51.960;8.542;2023-09-19T14:32:01;22.80;;;20.97;;
2019;SDS011;1014;51.960;8.542;2023-09-19T14:34:28;23.40;;;21.83;;
2019;SDS011;1014;51.960;8.542;2023-09-19T14:36:55;23.53;;;22.00;;
2019;SDS011;1014;51.960;8.542;2023-09-19T14:39:22;23.50;;;21.60;;
2019;SDS011;1014;51.960;8.542;2023-09-19T14:41:51;22.20;;;20.80;;
2019;SDS011;1014;51.960;8.542;2023-09-19T14:44:18;23.03;;;21.37;;
2019;SDS011;1014;51.960;8.542;2023-09-19T14:46:45;23.90;;;22.20;;
2019;SDS011;1014;51.960;8.542;2023-09-19T14:49:12;23.30;;;21.47;;
2019;SDS011;1014;51.960;8.542;2023-09-19T14:51:41;23.00;;;21.47;;
2019;SDS011;1014;51.960;8.542;2023-09-19T14:54:10;22.27;;;20.77;;
2019;SDS011;1014;51.960;8.542;2023-09-19T14:56:37;22.13;;;20.53;;
2019;SDS011;1014;51.960;8.542;2023-09-19T14:59:06;23.07;;;21.37;;
2019;SDS011;1014;51.960;8.542;2023-09-19T15:01:33;22.80;;;21.13;;
2019;SDS011;1014;51.960;8.542;2023-09-19T15:04:00;22.67;;;21.00;;
2019;SDS011;1014;51.960;8.542;2023-09-19T15:06:27;22.80;;;21.30;;
2019;SDS011;1014;51.960;8.542;2023-09-19T15:08:54;22.20;;;20.80;;
2019;SDS011;1014;51.960;8.542;2023-09-19T15:11:22;22.47;;;21.03;;
2019;SDS011;1014;51.960;8.542;2023-09-19T15:13:51;22.30;;;20.90;;
2019;SDS011;1014;51.960;8.542;2023-09-19T15:16:20;23.43;;;21.60;;
2019;SDS011;1014;51.960;8.542;2023-09-19T15:18:47;22.73;;;21.03;;
2019;SDS011;1014;51.960;8.542;2023-09-19T15:21:14;23.47;;;21.70;;
2019;SDS011;1014;51.960;8.542;2023-09-19T15:23:42;22.37;;;20.83;;
2019;SDS011;1014;51.960;8.542;2023-09-19T15:26:09;22.70;;;21.10;;
2019;SDS011;1014;51.960;8.542;2023-09-19T15:28:37;22.10;;;20.70;;